createdAt,value
2022-10-17T00:01:22.020Z,17.10
2022-10-17T00:03:50.002Z,17.10
2022-10-17T00:06:18.030Z,17.20
2022-10-17T00:08:47.377Z,17.10
2022-10-17T00:11:17.754Z,17.10
2022-10-17T00:13:46.330Z,17.10
2022-10-17T00:16:14.824Z,17.10
2022-10-17T00:18:42.812Z,17.10
2022-10-17T00:21:17.075Z,17.00
2022-10-17T00:23:45.139Z,17.00
2022-10-17T00:26:15.258Z,17.00
2022-10-17T00:28:43.478Z,17.00
2022-10-17T00:31:11.926Z,17.00
2022-10-17T00:33:40.112Z,16.90
2022-10-17T00:36:10.623Z,17.00
2022-10-17T00:38:38.727Z,17.00
2022-10-17T00:41:07.426Z,17.00
2022-10-17T00:46:39.885Z,17.00
2022-10-17T00:49:12.483Z,17.00
2022-10-17T00:51:46.193Z,17.00
2022-10-17T00:54:16.379Z,17.00
2022-10-17T00:56:44.756Z,17.00
2022-10-17T00:59:14.619Z,17.00
2022-10-17T01:01:48.268Z,17.00
2022-10-17T01:04:16.700Z,16.90
2022-10-17T01:06:44.774Z,16.90
2022-10-17T01:09:12.803Z,16.80
2022-10-17T01:11:46.255Z,16.90
2022-10-17T01:14:22.991Z,16.90
2022-10-17T01:17:02.157Z,16.90
2022-10-17T01:19:45.630Z,16.90
2022-10-17T01:22:23.289Z,16.80
2022-10-17T01:25:13.351Z,16.80
2022-10-17T01:28:00.350Z,16.80
2022-10-17T01:30:53.394Z,16.80
2022-10-17T01:33:34.064Z,16.90
2022-10-17T01:36:09.932Z,16.90
2022-10-17T01:38:45.087Z,16.80
2022-10-17T01:41:18.070Z,16.80
2022-10-17T01:43:52.404Z,16.80
2022-10-17T01:46:26.042Z,16.70
2022-10-17T01:48:57.682Z,16.80
2022-10-17T01:51:31.647Z,16.70
2022-10-17T01:54:03.273Z,16.70
2022-10-17T01:56:35.094Z,16.80
2022-10-17T01:59:09.794Z,16.70
2022-10-17T02:01:38.839Z,16.80
2022-10-17T02:04:10.041Z,16.70
2022-10-17T02:06:38.665Z,16.70
2022-10-17T02:09:20.975Z,16.70
2022-10-17T02:11:59.754Z,16.80
2022-10-17T02:14:38.489Z,16.70
2022-10-17T02:17:15.168Z,16.80
2022-10-17T02:19:56.096Z,16.80
2022-10-17T02:22:33.933Z,16.90
2022-10-17T02:25:10.780Z,16.90
2022-10-17T02:27:46.363Z,16.90
2022-10-17T02:30:20.023Z,16.90
2022-10-17T02:32:53.786Z,16.90
2022-10-17T02:35:24.980Z,16.90
2022-10-17T02:37:54.265Z,16.90
2022-10-17T02:40:25.143Z,16.90
2022-10-17T02:42:55.478Z,16.90
2022-10-17T02:45:26.266Z,16.90
2022-10-17T02:48:00.091Z,16.90
2022-10-17T02:50:39.753Z,16.90
2022-10-17T02:53:10.544Z,17.00
2022-10-17T02:55:44.578Z,17.00
2022-10-17T02:58:17.608Z,16.90
2022-10-17T03:00:46.353Z,16.90
2022-10-17T03:03:23.731Z,16.90
2022-10-17T03:05:54.668Z,17.00
2022-10-17T03:08:26.734Z,17.00
2022-10-17T03:10:54.986Z,17.00
2022-10-17T03:13:23.702Z,17.00
2022-10-17T03:15:51.843Z,17.00
2022-10-17T03:18:19.826Z,17.10
2022-10-17T03:20:50.071Z,17.10
2022-10-17T03:23:19.396Z,17.10
2022-10-17T03:25:48.442Z,17.10
2022-10-17T03:28:17.317Z,17.10
2022-10-17T03:30:45.314Z,17.10
2022-10-17T03:33:13.289Z,17.10
2022-10-17T03:35:41.546Z,17.10
2022-10-17T03:38:10.009Z,17.10
2022-10-17T03:40:39.762Z,17.10
2022-10-17T03:43:08.045Z,17.10
2022-10-17T03:45:36.858Z,17.10
2022-10-17T03:48:05.478Z,17.10
2022-10-17T03:50:33.509Z,17.10
2022-10-17T03:53:01.592Z,17.10
2022-10-17T03:55:30.203Z,17.10
2022-10-17T03:57:59.837Z,17.10
2022-10-17T04:00:27.846Z,17.10
2022-10-17T04:02:59.846Z,17.10
2022-10-17T04:05:28.256Z,17.10
2022-10-17T04:07:59.791Z,17.10
2022-10-17T04:10:50.367Z,17.10
2022-10-17T04:13:19.948Z,17.10
2022-10-17T04:15:55.642Z,17.20
2022-10-17T04:18:23.678Z,17.20
2022-10-17T04:20:52.282Z,17.20
2022-10-17T04:23:21.336Z,17.20
2022-10-17T04:25:51.613Z,17.20
2022-10-17T04:28:21.346Z,17.20
2022-10-17T04:30:57.349Z,17.30
2022-10-17T04:33:25.946Z,17.30
2022-10-17T04:35:58.224Z,17.20
2022-10-17T04:38:28.582Z,17.20
2022-10-17T04:40:58.881Z,17.20
2022-10-17T04:43:28.202Z,17.20
2022-10-17T04:45:57.906Z,17.20
2022-10-17T04:48:26.071Z,17.20
2022-10-17T04:50:57.536Z,17.20
2022-10-17T04:53:35.847Z,17.20
2022-10-17T04:56:09.423Z,17.20
2022-10-17T04:58:39.203Z,17.20
2022-10-17T05:01:08.023Z,17.20
2022-10-17T05:03:37.709Z,17.20
2022-10-17T05:06:07.282Z,17.20
2022-10-17T05:08:35.825Z,17.20
2022-10-17T05:11:04.065Z,17.10
2022-10-17T05:13:32.258Z,17.10
2022-10-17T05:16:02.366Z,17.10
2022-10-17T05:18:30.527Z,17.20
2022-10-17T05:20:58.601Z,17.20
2022-10-17T05:23:26.684Z,17.20
2022-10-17T05:25:58.148Z,17.20
2022-10-17T05:28:27.536Z,17.10
2022-10-17T05:31:02.992Z,17.10
2022-10-17T05:33:31.159Z,17.10
2022-10-17T05:35:59.528Z,17.10
2022-10-17T05:38:28.361Z,17.10
2022-10-17T05:40:59.398Z,17.10
2022-10-17T05:43:29.091Z,17.20
2022-10-17T05:45:57.452Z,17.20
2022-10-17T05:48:26.861Z,17.10
2022-10-17T05:50:59.938Z,17.20
2022-10-17T05:53:30.792Z,17.20
2022-10-17T05:56:03.095Z,17.20
2022-10-17T05:58:49.389Z,17.20
2022-10-17T06:01:30.408Z,17.20
2022-10-17T06:04:00.282Z,17.20
2022-10-17T06:06:29.217Z,17.10
2022-10-17T06:08:57.259Z,17.10
2022-10-17T06:11:30.535Z,17.10
2022-10-17T06:13:59.335Z,17.10
2022-10-17T06:16:29.745Z,17.10
2022-10-17T06:18:58.467Z,17.10
2022-10-17T06:21:29.442Z,17.10
2022-10-17T06:24:07.618Z,17.10
2022-10-17T06:26:37.731Z,17.10
2022-10-17T06:29:08.525Z,17.10
2022-10-17T06:31:42.319Z,17.20
2022-10-17T06:34:11.569Z,17.20
2022-10-17T06:36:42.289Z,17.20
2022-10-17T06:39:11.632Z,17.20
2022-10-17T06:41:44.604Z,17.30
2022-10-17T06:44:13.483Z,17.30
2022-10-17T06:47:20.180Z,17.30
2022-10-17T06:49:49.530Z,17.40
2022-10-17T06:52:27.674Z,17.40
2022-10-17T06:55:16.835Z,17.40
2022-10-17T06:58:11.592Z,17.40
2022-10-17T07:00:46.502Z,17.50
2022-10-17T07:03:14.711Z,17.50
2022-10-17T07:05:43.141Z,17.60
2022-10-17T07:08:12.605Z,17.60
2022-10-17T07:10:40.651Z,17.70
2022-10-17T07:13:09.292Z,17.80
2022-10-17T07:15:38.742Z,17.90
2022-10-17T07:18:07.087Z,18.00
2022-10-17T07:20:35.639Z,18.00
2022-10-17T07:23:03.791Z,18.00
2022-10-17T07:25:35.261Z,18.10
2022-10-17T07:28:08.776Z,18.10
2022-10-17T07:30:37.092Z,18.20
2022-10-17T07:33:09.712Z,18.20
2022-10-17T07:35:40.891Z,18.20
2022-10-17T07:38:09.343Z,18.20
2022-10-17T07:40:38.791Z,18.30
2022-10-17T07:43:06.791Z,18.30
2022-10-17T07:45:34.873Z,18.30
2022-10-17T07:48:03.049Z,18.30
2022-10-17T07:50:33.151Z,18.40
2022-10-17T07:53:01.223Z,18.40
2022-10-17T07:55:29.323Z,18.50
2022-10-17T07:58:00.392Z,18.50
2022-10-17T08:00:28.372Z,18.50
2022-10-17T08:02:56.430Z,18.60
2022-10-17T08:05:24.441Z,18.60
2022-10-17T08:07:52.484Z,18.60
2022-10-17T08:10:20.887Z,18.70
2022-10-17T08:12:48.878Z,18.70
2022-10-17T08:15:18.384Z,18.80
2022-10-17T08:17:46.439Z,18.90
2022-10-17T08:20:14.462Z,19.00
2022-10-17T08:22:42.530Z,19.00
2022-10-17T08:25:11.076Z,19.00
2022-10-17T08:27:39.102Z,19.10
2022-10-17T08:30:08.090Z,19.00
2022-10-17T08:32:37.507Z,19.00
2022-10-17T08:35:06.011Z,19.00
2022-10-17T08:37:34.295Z,19.00
2022-10-17T08:40:02.874Z,19.00
2022-10-17T08:42:46.758Z,19.10
2022-10-17T08:45:24.493Z,19.10
2022-10-17T08:47:59.785Z,19.20
2022-10-17T08:50:36.282Z,19.30
2022-10-17T08:53:09.666Z,19.40
2022-10-17T08:55:42.760Z,19.40
2022-10-17T08:58:19.998Z,19.40
2022-10-17T09:00:59.110Z,19.40
2022-10-17T09:03:53.920Z,19.50
2022-10-17T09:06:29.917Z,19.50
2022-10-17T09:09:17.773Z,19.50
2022-10-17T09:11:58.519Z,19.60
2022-10-17T09:14:50.046Z,19.60
2022-10-17T09:17:25.279Z,19.70
2022-10-17T09:20:01.383Z,19.70
2022-10-17T09:22:34.114Z,19.70
2022-10-17T09:25:06.783Z,19.70
2022-10-17T09:27:39.663Z,19.70
2022-10-17T09:30:46.232Z,19.80
2022-10-17T09:33:34.495Z,19.80
2022-10-17T09:36:12.542Z,19.80
2022-10-17T09:38:45.494Z,19.90
2022-10-17T09:41:43.554Z,19.90
2022-10-17T09:44:20.254Z,20.00
2022-10-17T09:47:01.023Z,20.00
2022-10-17T09:49:34.273Z,20.00
2022-10-17T09:52:04.975Z,20.00
2022-10-17T09:54:42.586Z,20.00
2022-10-17T09:57:12.740Z,20.10
2022-10-17T09:59:42.435Z,20.10
2022-10-17T10:02:16.886Z,20.10
2022-10-17T10:05:05.114Z,20.10
2022-10-17T10:07:37.288Z,20.20
2022-10-17T10:10:08.214Z,20.30
2022-10-17T10:12:38.990Z,20.30
2022-10-17T10:15:32.062Z,20.50
2022-10-17T10:18:00.138Z,20.60
2022-10-17T10:20:32.284Z,20.70
2022-10-17T10:23:09.355Z,20.80
2022-10-17T10:25:37.689Z,21.00
2022-10-17T10:28:11.780Z,21.10
2022-10-17T10:30:40.181Z,21.10
2022-10-17T10:33:13.195Z,21.00
2022-10-17T10:35:41.375Z,20.90
2022-10-17T10:38:16.557Z,21.00
2022-10-17T10:40:48.790Z,20.90
2022-10-17T10:43:27.544Z,20.90
2022-10-17T10:45:55.694Z,20.90
2022-10-17T10:48:25.514Z,20.90
2022-10-17T10:50:57.837Z,20.80
2022-10-17T10:53:42.866Z,20.80
2022-10-17T10:56:17.737Z,20.80
2022-10-17T10:58:58.952Z,20.70
2022-10-17T11:01:36.216Z,20.70
2022-10-17T11:04:22.735Z,20.80
2022-10-17T11:06:56.238Z,20.70
2022-10-17T11:09:38.922Z,20.80
2022-10-17T11:12:12.424Z,20.70
2022-10-17T11:14:46.067Z,20.80
2022-10-17T11:17:24.167Z,20.80
2022-10-17T11:20:01.973Z,20.70
2022-10-17T11:22:34.193Z,20.70
2022-10-17T11:25:07.083Z,20.70
2022-10-17T11:27:35.583Z,20.70
2022-10-17T11:30:04.597Z,20.70
2022-10-17T11:32:38.783Z,20.80
2022-10-17T11:35:15.258Z,20.80
2022-10-17T11:37:49.020Z,20.80
2022-10-17T11:40:24.409Z,20.80
2022-10-17T11:42:58.158Z,20.80
2022-10-17T11:45:30.362Z,20.90
2022-10-17T11:48:04.013Z,20.90
2022-10-17T11:53:26.057Z,20.90
2022-10-17T11:55:59.179Z,20.90
2022-10-17T11:58:36.664Z,20.90
2022-10-17T12:01:15.111Z,21.00
2022-10-17T12:04:03.880Z,21.00
2022-10-17T12:06:47.764Z,21.00
2022-10-17T12:09:21.541Z,21.00
2022-10-17T12:11:54.941Z,21.00
2022-10-17T12:14:43.591Z,20.90
2022-10-17T12:17:40.538Z,20.90
2022-10-17T12:20:35.759Z,21.00
2022-10-17T12:23:23.056Z,20.90
2022-10-17T12:25:55.929Z,21.00
2022-10-17T12:28:31.812Z,21.00
2022-10-17T12:31:02.825Z,20.90
2022-10-17T12:33:36.567Z,20.90
2022-10-17T12:36:48.066Z,20.90
2022-10-17T12:39:46.139Z,20.80
2022-10-17T12:42:34.679Z,20.80
2022-10-17T12:45:26.250Z,20.80
2022-10-17T12:47:55.627Z,20.70
2022-10-17T12:51:34.923Z,20.70
2022-10-17T12:53:58.039Z,20.70
2022-10-17T12:56:36.457Z,20.70
2022-10-17T12:59:10.950Z,20.70
2022-10-17T13:01:41.110Z,20.80
2022-10-17T13:04:12.567Z,20.80
2022-10-17T13:06:46.785Z,20.70
2022-10-17T13:09:25.326Z,20.80
2022-10-17T13:11:54.576Z,20.80
2022-10-17T13:14:24.086Z,20.80
2022-10-17T13:16:54.783Z,20.70
2022-10-17T13:19:26.030Z,20.80
2022-10-17T13:21:56.172Z,20.80
2022-10-17T13:24:31.312Z,20.80
2022-10-17T13:27:00.383Z,20.80
2022-10-17T13:29:30.826Z,20.80
2022-10-17T13:32:01.795Z,20.80
2022-10-17T13:34:32.366Z,20.80
2022-10-17T13:37:03.382Z,20.90
2022-10-17T13:40:00.368Z,20.90
2022-10-17T13:42:31.978Z,20.80
2022-10-17T13:45:00.850Z,20.80
2022-10-17T13:47:30.689Z,20.80
2022-10-17T13:50:01.437Z,20.80
2022-10-17T13:52:31.049Z,20.80
2022-10-17T13:55:11.769Z,20.80
2022-10-17T13:57:41.732Z,20.80
2022-10-17T14:00:19.216Z,20.80
2022-10-17T14:02:48.267Z,20.80
2022-10-17T14:05:20.589Z,20.80
2022-10-17T14:10:43.915Z,20.90
2022-10-17T14:13:23.069Z,21.00
2022-10-17T14:15:52.148Z,21.00
2022-10-17T14:18:23.300Z,21.10
2022-10-17T14:23:44.751Z,21.10
2022-10-17T14:26:15.961Z,21.20
2022-10-17T14:28:47.139Z,21.20
2022-10-17T14:31:37.859Z,21.20
2022-10-17T14:34:06.680Z,21.20
2022-10-17T14:36:39.552Z,21.20
2022-10-17T14:39:17.409Z,21.20
2022-10-17T14:41:46.875Z,21.20
2022-10-17T14:44:22.642Z,21.30
2022-10-17T14:46:55.147Z,21.20
2022-10-17T14:49:34.577Z,21.30
2022-10-17T14:52:25.061Z,21.40
2022-10-17T14:54:53.409Z,21.40
2022-10-17T14:57:25.735Z,21.40
2022-10-17T14:59:55.480Z,21.40
2022-10-17T15:02:24.245Z,21.40
2022-10-17T15:04:52.781Z,21.40
2022-10-17T15:07:23.659Z,21.40
2022-10-17T15:09:53.924Z,21.30
2022-10-17T15:12:24.993Z,21.30
2022-10-17T15:14:53.808Z,21.30
2022-10-17T15:17:26.324Z,21.30
2022-10-17T15:19:54.475Z,21.20
2022-10-17T15:22:23.843Z,21.20
2022-10-17T15:24:51.844Z,21.20
2022-10-17T15:27:22.573Z,21.10
2022-10-17T15:29:52.966Z,21.10
2022-10-17T15:32:22.038Z,21.10
2022-10-17T15:34:50.188Z,21.00
2022-10-17T15:37:22.305Z,21.00
2022-10-17T15:39:54.342Z,20.90
2022-10-17T15:42:24.096Z,20.90
2022-10-17T15:44:52.118Z,20.80
2022-10-17T15:47:25.071Z,20.80
2022-10-17T15:49:53.832Z,20.80
2022-10-17T15:52:23.494Z,20.70
2022-10-17T15:54:53.334Z,20.70
2022-10-17T15:57:29.477Z,20.70
2022-10-17T15:59:59.875Z,20.70
2022-10-17T16:02:28.309Z,20.60
2022-10-17T16:04:56.376Z,20.60
2022-10-17T16:07:24.358Z,20.60
2022-10-17T16:09:53.705Z,20.60
2022-10-17T16:12:27.969Z,20.60
2022-10-17T16:14:56.638Z,20.60
2022-10-17T16:17:24.702Z,20.70
2022-10-17T16:19:52.634Z,20.60
2022-10-17T16:22:25.742Z,20.60
2022-10-17T16:24:58.875Z,20.70
2022-10-17T16:27:27.382Z,20.60
2022-10-17T16:29:55.385Z,20.60
2022-10-17T16:32:23.352Z,20.60
2022-10-17T16:34:51.384Z,20.50
2022-10-17T16:37:19.386Z,20.40
2022-10-17T16:39:52.267Z,20.40
2022-10-17T16:42:21.962Z,20.30
2022-10-17T16:44:51.373Z,20.20
2022-10-17T16:47:20.564Z,20.10
2022-10-17T16:49:48.783Z,20.10
2022-10-17T16:52:16.798Z,20.00
2022-10-17T16:54:44.746Z,20.00
2022-10-17T16:57:12.705Z,19.90
2022-10-17T16:59:42.645Z,19.90
2022-10-17T17:02:12.402Z,19.80
2022-10-17T17:04:40.453Z,19.70
2022-10-17T17:07:08.470Z,19.70
2022-10-17T17:09:36.501Z,19.60
2022-10-17T17:12:04.609Z,19.60
2022-10-17T17:14:32.583Z,19.50
2022-10-17T17:17:02.392Z,19.40
2022-10-17T17:19:30.449Z,19.40
2022-10-17T17:21:59.329Z,19.40
2022-10-17T17:24:30.524Z,19.30
2022-10-17T17:26:58.608Z,19.20
2022-10-17T17:29:26.944Z,19.20
2022-10-17T17:31:55.505Z,19.20
2022-10-17T17:34:24.874Z,19.10
2022-10-17T17:36:52.957Z,19.10
2022-10-17T17:39:21.044Z,19.00
2022-10-17T17:41:49.025Z,19.00
2022-10-17T17:44:17.336Z,19.00
2022-10-17T17:46:45.957Z,19.00
2022-10-17T17:49:14.013Z,19.00
2022-10-17T17:51:46.261Z,19.00
2022-10-17T17:54:15.252Z,19.00
2022-10-17T17:56:43.567Z,18.90
2022-10-17T17:59:14.315Z,18.90
2022-10-17T18:01:42.641Z,18.90
2022-10-17T18:04:12.623Z,18.90
2022-10-17T18:06:41.328Z,18.90
2022-10-17T18:09:10.939Z,18.90
2022-10-17T18:11:39.489Z,18.90
2022-10-17T18:14:11.518Z,18.90
2022-10-17T18:16:39.713Z,18.90
2022-10-17T18:19:09.627Z,18.90
2022-10-17T18:21:37.925Z,18.90
2022-10-17T18:24:06.942Z,18.90
2022-10-17T18:26:36.448Z,18.90
2022-10-17T18:29:05.332Z,18.90
2022-10-17T18:31:35.803Z,18.90
2022-10-17T18:34:05.331Z,18.90
2022-10-17T18:36:35.424Z,18.90
2022-10-17T18:39:03.796Z,18.90
2022-10-17T18:41:35.607Z,18.80
2022-10-17T18:44:05.477Z,18.80
2022-10-17T18:46:47.670Z,18.80
2022-10-17T18:49:18.829Z,18.90
2022-10-17T18:51:47.539Z,18.90
2022-10-17T18:54:20.368Z,18.90
2022-10-17T18:56:48.715Z,18.90
2022-10-17T18:59:30.938Z,18.90
2022-10-17T19:02:00.971Z,18.80
2022-10-17T19:04:29.363Z,18.80
2022-10-17T19:06:57.420Z,18.80
2022-10-17T19:09:25.472Z,18.80
2022-10-17T19:11:53.697Z,18.80
2022-10-17T19:14:23.151Z,18.80
2022-10-17T19:16:51.875Z,18.80
2022-10-17T19:19:21.707Z,18.70
2022-10-17T19:21:49.883Z,18.70
2022-10-17T19:24:19.818Z,18.70
2022-10-17T19:26:50.497Z,18.70
2022-10-17T19:29:19.348Z,18.60
2022-10-17T19:31:49.138Z,18.70
2022-10-17T19:34:18.483Z,18.60
2022-10-17T19:36:46.878Z,18.60
2022-10-17T19:39:18.295Z,18.60
2022-10-17T19:41:48.236Z,18.60
2022-10-17T19:44:17.335Z,18.60
2022-10-17T19:46:46.786Z,18.60
2022-10-17T19:49:18.300Z,18.60
2022-10-17T19:51:47.620Z,18.60
2022-10-17T19:54:18.196Z,18.60
2022-10-17T19:56:46.245Z,18.50
2022-10-17T19:59:17.092Z,18.60
2022-10-17T20:01:45.774Z,18.50
2022-10-17T20:04:16.298Z,18.60
2022-10-17T20:06:44.420Z,18.50
2022-10-17T20:09:16.612Z,18.50
2022-10-17T20:11:45.435Z,18.50
2022-10-17T20:14:13.781Z,18.50
2022-10-17T20:16:41.772Z,18.40
2022-10-17T20:19:12.481Z,18.40
2022-10-17T20:21:43.104Z,18.40
2022-10-17T20:24:14.361Z,18.40
2022-10-17T20:26:42.756Z,18.30
2022-10-17T20:29:14.241Z,18.30
2022-10-17T20:31:45.593Z,18.30
2022-10-17T20:34:16.034Z,18.20
2022-10-17T20:36:45.412Z,18.20
2022-10-17T20:39:15.221Z,18.10
2022-10-17T20:41:43.993Z,18.10
2022-10-17T20:44:12.815Z,18.10
2022-10-17T20:46:48.754Z,18.10
2022-10-17T20:49:21.469Z,18.10
2022-10-17T20:51:50.788Z,18.10
2022-10-17T20:54:18.773Z,18.00
2022-10-17T20:56:46.716Z,18.00
2022-10-17T20:59:16.989Z,18.00
2022-10-17T21:01:46.106Z,18.00
2022-10-17T21:04:44.740Z,18.00
2022-10-17T21:07:05.074Z,17.90
2022-10-17T21:09:33.171Z,17.90
2022-10-17T21:14:36.292Z,17.80
2022-10-17T21:17:05.513Z,17.80
2022-10-17T21:19:33.846Z,17.70
2022-10-17T21:22:01.992Z,17.70
2022-10-17T21:24:32.150Z,17.70
2022-10-17T21:27:00.725Z,17.70
2022-10-17T21:29:28.736Z,17.70
2022-10-17T21:31:56.767Z,17.60
2022-10-17T21:34:25.510Z,17.60
2022-10-17T21:36:54.141Z,17.60
2022-10-17T21:39:23.995Z,17.60
2022-10-17T21:41:54.092Z,17.60
2022-10-17T21:44:25.177Z,17.50
2022-10-17T21:46:54.012Z,17.50
2022-10-17T21:49:26.601Z,17.50
2022-10-17T21:51:54.855Z,17.50
2022-10-17T21:54:24.071Z,17.50
2022-10-17T21:56:53.457Z,17.50
2022-10-17T21:59:21.421Z,17.50
2022-10-17T22:01:49.637Z,17.50
2022-10-17T22:04:19.830Z,17.50
2022-10-17T22:06:51.409Z,17.50
2022-10-17T22:09:21.277Z,17.50
2022-10-17T22:11:51.826Z,17.40
2022-10-17T22:14:22.770Z,17.50
2022-10-17T22:16:51.408Z,17.50
2022-10-17T22:19:21.409Z,17.50
2022-10-17T22:21:49.380Z,17.50
2022-10-17T22:26:52.774Z,17.50
2022-10-17T22:29:22.290Z,17.50
2022-10-17T22:31:50.303Z,17.50
2022-10-17T22:34:19.405Z,17.50
2022-10-17T22:36:48.854Z,17.50
2022-10-17T22:39:17.028Z,17.40
2022-10-17T22:41:45.102Z,17.40
2022-10-17T22:44:13.065Z,17.40
2022-10-17T22:46:42.363Z,17.50
2022-10-17T22:49:10.375Z,17.50
2022-10-17T22:51:38.350Z,17.40
2022-10-17T22:54:06.425Z,17.40
2022-10-17T22:56:34.420Z,17.40
2022-10-17T22:59:02.410Z,17.40
2022-10-17T23:01:30.471Z,17.40
2022-10-17T23:03:59.826Z,17.40
2022-10-17T23:06:27.846Z,17.30
2022-10-17T23:08:56.004Z,17.30
2022-10-17T23:11:23.948Z,17.30
2022-10-17T23:13:52.030Z,17.30
2022-10-17T23:16:19.985Z,17.30
2022-10-17T23:18:47.968Z,17.30
2022-10-17T23:21:17.299Z,17.30
2022-10-17T23:23:45.329Z,17.20
2022-10-17T23:26:14.771Z,17.20
2022-10-17T23:28:43.558Z,17.30
2022-10-17T23:31:13.876Z,17.30
2022-10-17T23:33:41.869Z,17.30
2022-10-17T23:36:11.331Z,17.30
2022-10-17T23:38:41.328Z,17.30
2022-10-17T23:41:09.576Z,17.20
2022-10-17T23:43:37.765Z,17.20
2022-10-17T23:46:07.089Z,17.30
2022-10-17T23:48:35.097Z,17.30
2022-10-17T23:51:03.245Z,17.20
2022-10-17T23:53:31.558Z,17.20
2022-10-17T23:56:00.913Z,17.20
2022-10-17T23:58:28.899Z,17.20
